createdAt,value
2022-09-23T00:00:49.615Z,99.90
2022-09-23T00:03:16.662Z,99.90
2022-09-23T00:05:44.069Z,99.90
2022-09-23T00:08:11.780Z,99.90
2022-09-23T00:10:39.377Z,99.90
2022-09-23T00:13:06.552Z,99.90
2022-09-23T00:15:38.090Z,99.90
2022-09-23T00:18:04.991Z,99.90
2022-09-23T00:20:33.293Z,99.90
2022-09-23T00:23:00.567Z,99.90
2022-09-23T00:25:29.712Z,99.90
2022-09-23T00:27:56.951Z,99.90
2022-09-23T00:30:23.689Z,99.90
2022-09-23T00:32:50.458Z,99.90
2022-09-23T00:35:17.167Z,99.90
2022-09-23T00:37:43.777Z,99.90
2022-09-23T00:40:12.309Z,99.90
2022-09-23T00:42:45.077Z,99.90
2022-09-23T00:45:12.046Z,99.90
2022-09-23T00:47:45.207Z,99.90
2022-09-23T00:50:35.081Z,99.90
2022-09-23T00:53:03.692Z,99.90
2022-09-23T00:55:33.031Z,99.90
2022-09-23T00:58:01.372Z,99.90
2022-09-23T01:00:28.084Z,99.90
2022-09-23T01:02:54.960Z,99.90
2022-09-23T01:05:21.642Z,99.90
2022-09-23T01:07:49.112Z,99.90
2022-09-23T01:10:18.607Z,99.90
2022-09-23T01:13:04.048Z,99.90
2022-09-23T01:15:31.125Z,99.90
2022-09-23T01:18:23.028Z,99.90
2022-09-23T01:21:13.235Z,99.90
2022-09-23T01:23:48.951Z,99.90
2022-09-23T01:26:19.343Z,99.90
2022-09-23T01:28:45.955Z,99.90
2022-09-23T01:31:18.776Z,99.90
2022-09-23T01:33:51.755Z,99.90
2022-09-23T01:36:30.259Z,99.90
2022-09-23T01:39:00.913Z,99.90
2022-09-23T01:41:40.586Z,99.90
2022-09-23T01:44:13.179Z,99.90
2022-09-23T01:47:00.766Z,99.90
2022-09-23T01:49:27.361Z,99.90
2022-09-23T01:51:57.556Z,99.90
2022-09-23T01:54:28.601Z,99.90
2022-09-23T01:57:01.777Z,99.90
2022-09-23T01:59:36.148Z,99.90
2022-09-23T02:02:29.230Z,99.90
2022-09-23T02:05:05.189Z,99.90
2022-09-23T02:07:31.761Z,99.90
2022-09-23T02:10:02.763Z,99.90
2022-09-23T02:12:30.324Z,99.90
2022-09-23T02:15:02.659Z,99.90
2022-09-23T02:17:33.869Z,99.90
2022-09-23T02:20:02.762Z,99.90
2022-09-23T02:22:40.918Z,99.90
2022-09-23T02:25:08.737Z,99.90
2022-09-23T02:27:41.557Z,99.90
2022-09-23T02:30:09.579Z,99.90
2022-09-23T02:32:54.698Z,99.90
2022-09-23T02:35:37.163Z,99.90
2022-09-23T02:38:17.682Z,99.90
2022-09-23T02:40:55.887Z,99.90
2022-09-23T02:43:33.131Z,99.90
2022-09-23T02:46:00.258Z,99.90
2022-09-23T02:48:29.312Z,99.90
2022-09-23T02:50:56.104Z,99.90
2022-09-23T02:53:23.327Z,99.90
2022-09-23T02:55:51.173Z,99.90
2022-09-23T02:58:17.983Z,99.90
2022-09-23T03:00:44.686Z,99.90
2022-09-23T03:03:26.830Z,99.90
2022-09-23T03:05:55.939Z,99.90
2022-09-23T03:08:32.372Z,99.90
2022-09-23T03:11:04.318Z,99.90
2022-09-23T03:13:51.129Z,99.90
2022-09-23T03:16:24.632Z,99.90
2022-09-23T03:19:02.967Z,99.90
2022-09-23T03:21:34.003Z,99.90
2022-09-23T03:24:02.797Z,99.90
2022-09-23T03:26:34.284Z,99.90
2022-09-23T03:29:05.172Z,99.90
2022-09-23T03:31:33.026Z,99.90
2022-09-23T03:34:02.392Z,99.90
2022-09-23T03:36:51.496Z,99.90
2022-09-23T03:39:44.554Z,99.90
2022-09-23T03:42:16.663Z,99.90
2022-09-23T03:44:44.466Z,99.90
2022-09-23T03:47:12.745Z,99.90
2022-09-23T03:49:39.913Z,99.90
2022-09-23T03:52:06.911Z,99.90
2022-09-23T03:54:34.063Z,99.90
2022-09-23T03:57:02.054Z,99.90
2022-09-23T03:59:30.319Z,99.90
2022-09-23T04:01:57.226Z,99.90
2022-09-23T04:04:23.846Z,99.90
2022-09-23T04:06:50.463Z,99.90
2022-09-23T04:09:17.114Z,99.90
2022-09-23T04:11:43.723Z,99.90
2022-09-23T04:14:12.099Z,99.90
2022-09-23T04:16:39.122Z,99.90
2022-09-23T04:19:11.701Z,99.90
2022-09-23T04:21:39.002Z,99.90
2022-09-23T04:24:05.793Z,99.90
2022-09-23T04:26:33.411Z,99.90
2022-09-23T04:29:00.138Z,99.90
2022-09-23T04:31:26.847Z,99.90
2022-09-23T04:33:53.653Z,99.90
2022-09-23T04:36:20.600Z,99.90
2022-09-23T04:38:47.727Z,99.90
2022-09-23T04:41:14.686Z,99.90
2022-09-23T04:43:42.089Z,99.90
2022-09-23T04:46:09.761Z,99.90
2022-09-23T04:48:37.513Z,99.90
2022-09-23T04:51:04.628Z,99.90
2022-09-23T04:53:31.653Z,99.90
2022-09-23T04:56:09.801Z,99.90
2022-09-23T04:58:36.553Z,99.90
2022-09-23T05:01:17.046Z,99.90
2022-09-23T05:03:49.632Z,99.90
2022-09-23T05:06:16.254Z,99.90
2022-09-23T05:08:47.178Z,99.90
2022-09-23T05:11:13.736Z,99.90
2022-09-23T05:13:40.356Z,99.90
2022-09-23T05:16:08.184Z,99.90
2022-09-23T05:18:35.406Z,99.90
2022-09-23T05:21:02.588Z,99.90
2022-09-23T05:23:29.837Z,99.90
2022-09-23T05:25:59.047Z,99.90
2022-09-23T05:28:35.236Z,99.90
2022-09-23T05:31:03.206Z,99.90
2022-09-23T05:33:30.255Z,99.90
2022-09-23T05:35:57.055Z,99.90
2022-09-23T05:38:23.829Z,99.90
2022-09-23T05:41:01.180Z,99.90
2022-09-23T05:43:28.132Z,99.90
2022-09-23T05:46:02.298Z,99.90
2022-09-23T05:48:32.006Z,99.90
2022-09-23T05:50:59.547Z,99.90
2022-09-23T05:53:26.930Z,99.90
2022-09-23T05:55:54.630Z,99.90
2022-09-23T05:58:21.678Z,99.90
2022-09-23T06:00:49.290Z,99.90
2022-09-23T06:03:17.207Z,99.90
2022-09-23T06:05:43.865Z,99.90
2022-09-23T06:08:10.958Z,99.90
2022-09-23T06:10:41.723Z,99.90
2022-09-23T06:13:08.370Z,99.90
2022-09-23T06:15:35.352Z,99.90
2022-09-23T06:18:02.319Z,99.90
2022-09-23T06:20:28.889Z,99.90
2022-09-23T06:22:56.462Z,99.90
2022-09-23T06:25:23.103Z,99.90
2022-09-23T06:27:54.410Z,99.60
2022-09-23T06:30:21.638Z,99.90
2022-09-23T06:32:49.968Z,99.80
2022-09-23T06:35:25.983Z,99.90
2022-09-23T06:37:54.072Z,99.70
2022-09-23T06:40:22.394Z,98.30
2022-09-23T06:42:52.346Z,98.80
2022-09-23T06:45:21.411Z,98.40
2022-09-23T06:47:51.119Z,98.50
2022-09-23T06:50:18.009Z,97.90
2022-09-23T06:52:50.190Z,98.50
2022-09-23T06:55:16.827Z,98.10
2022-09-23T06:57:43.439Z,97.60
2022-09-23T07:00:10.359Z,96.40
2022-09-23T07:02:37.107Z,97.00
2022-09-23T07:05:03.885Z,96.70
2022-09-23T07:07:31.330Z,96.80
2022-09-23T07:09:58.481Z,96.60
2022-09-23T07:12:25.058Z,96.70
2022-09-23T07:14:51.673Z,97.10
2022-09-23T07:17:18.302Z,97.00
2022-09-23T07:19:44.913Z,97.20
2022-09-23T07:22:12.016Z,96.60
2022-09-23T07:24:38.653Z,96.70
2022-09-23T07:27:05.380Z,96.30
2022-09-23T07:29:42.527Z,96.60
2022-09-23T07:32:14.470Z,96.40
2022-09-23T07:34:41.971Z,96.40
2022-09-23T07:37:08.897Z,96.10
2022-09-23T07:39:36.717Z,95.90
2022-09-23T07:42:05.163Z,95.70
2022-09-23T07:44:32.025Z,95.60
2022-09-23T07:46:59.463Z,94.70
2022-09-23T07:49:26.506Z,95.10
2022-09-23T07:51:53.614Z,95.30
2022-09-23T07:54:20.491Z,94.70
2022-09-23T07:56:47.124Z,94.00
2022-09-23T07:59:17.118Z,93.90
2022-09-23T08:01:44.824Z,94.20
2022-09-23T08:04:17.797Z,93.10
2022-09-23T08:06:45.991Z,93.10
2022-09-23T08:09:12.755Z,93.20
2022-09-23T08:11:42.049Z,92.80
2022-09-23T08:14:13.592Z,93.50
2022-09-23T08:16:40.975Z,92.20
2022-09-23T08:19:07.937Z,92.40
2022-09-23T08:21:34.862Z,92.60
2022-09-23T08:24:01.574Z,91.80
2022-09-23T08:26:28.533Z,91.80
2022-09-23T08:28:56.486Z,91.60
2022-09-23T08:31:23.482Z,91.80
2022-09-23T08:33:56.678Z,90.20
2022-09-23T08:36:23.646Z,89.80
2022-09-23T08:38:50.309Z,88.90
2022-09-23T08:41:36.006Z,89.20
2022-09-23T08:44:20.917Z,85.80
2022-09-23T08:47:07.741Z,85.20
2022-09-23T08:49:52.678Z,83.30
2022-09-23T08:52:27.220Z,82.70
2022-09-23T08:54:55.595Z,78.50
2022-09-23T08:57:31.017Z,80.20
2022-09-23T08:59:57.891Z,81.50
2022-09-23T09:02:24.651Z,74.10
2022-09-23T09:04:57.206Z,74.20
2022-09-23T09:07:37.687Z,65.70
2022-09-23T09:10:05.298Z,59.80
2022-09-23T09:12:48.844Z,61.30
2022-09-23T09:15:18.464Z,54.40
2022-09-23T09:17:50.133Z,53.30
2022-09-23T09:20:23.141Z,54.00
2022-09-23T09:22:52.872Z,51.40
2022-09-23T09:25:38.299Z,48.60
2022-09-23T09:28:13.356Z,49.10
2022-09-23T09:30:41.046Z,44.30
2022-09-23T09:33:13.603Z,43.00
2022-09-23T09:35:50.443Z,44.70
2022-09-23T09:38:17.111Z,42.50
2022-09-23T09:40:46.965Z,44.10
2022-09-23T09:43:22.636Z,43.40
2022-09-23T09:45:59.150Z,41.70
2022-09-23T09:48:31.384Z,39.40
2022-09-23T09:51:16.628Z,40.40
2022-09-23T09:53:43.108Z,40.90
2022-09-23T09:56:10.944Z,39.20
2022-09-23T09:58:46.769Z,39.10
2022-09-23T10:01:24.142Z,40.60
2022-09-23T10:03:55.570Z,39.20
2022-09-23T10:06:25.947Z,41.30
2022-09-23T10:09:01.798Z,38.30
2022-09-23T10:11:29.459Z,37.80
2022-09-23T10:14:05.522Z,38.00
2022-09-23T10:16:34.293Z,37.90
2022-09-23T10:19:02.936Z,38.90
2022-09-23T10:21:37.556Z,39.10
2022-09-23T10:24:05.628Z,38.80
2022-09-23T10:26:38.862Z,38.40
2022-09-23T10:29:24.337Z,37.50
2022-09-23T10:32:11.791Z,36.30
2022-09-23T10:34:42.557Z,36.90
2022-09-23T10:37:23.020Z,36.40
2022-09-23T10:40:08.370Z,36.50
2022-09-23T10:43:03.227Z,37.50
2022-09-23T10:46:12.240Z,37.50
2022-09-23T10:48:50.987Z,38.60
2022-09-23T10:51:26.383Z,37.40
2022-09-23T10:54:03.982Z,37.00
2022-09-23T10:56:33.851Z,37.20
2022-09-23T10:59:03.359Z,36.90
2022-09-23T11:01:48.945Z,38.20
2022-09-23T11:04:34.430Z,37.20
2022-09-23T11:07:07.330Z,39.20
2022-09-23T11:09:40.441Z,37.70
2022-09-23T11:12:13.723Z,37.60
2022-09-23T11:14:43.365Z,38.20
2022-09-23T11:17:16.346Z,39.10
2022-09-23T11:20:01.735Z,39.60
2022-09-23T11:22:46.537Z,38.40
2022-09-23T11:25:16.797Z,38.90
2022-09-23T11:27:57.028Z,37.80
2022-09-23T11:30:29.988Z,37.00
2022-09-23T11:33:13.824Z,37.80
2022-09-23T11:35:50.853Z,37.40
2022-09-23T11:38:25.799Z,39.40
2022-09-23T11:40:55.583Z,39.60
2022-09-23T11:43:28.497Z,38.90
2022-09-23T11:45:58.638Z,40.00
2022-09-23T11:48:30.074Z,41.20
2022-09-23T11:51:00.033Z,41.50
2022-09-23T11:53:34.916Z,42.30
2022-09-23T11:56:05.553Z,41.40
2022-09-23T12:01:13.268Z,42.10
2022-09-23T12:03:49.365Z,43.30
2022-09-23T12:06:20.055Z,43.40
2022-09-23T12:08:48.875Z,42.90
2022-09-23T12:11:22.103Z,42.30
2022-09-23T12:13:54.978Z,42.80
2022-09-23T12:16:40.297Z,44.20
2022-09-23T12:19:22.531Z,45.90
2022-09-23T12:22:08.344Z,44.60
2022-09-23T12:24:46.016Z,43.70
2022-09-23T12:27:34.401Z,43.70
2022-09-23T12:30:02.655Z,43.60
2022-09-23T12:32:32.262Z,44.80
2022-09-23T12:35:00.562Z,45.90
2022-09-23T12:37:27.413Z,43.60
2022-09-23T12:39:54.553Z,42.70
2022-09-23T12:42:22.303Z,42.90
2022-09-23T12:44:49.136Z,44.50
2022-09-23T12:47:24.968Z,45.10
2022-09-23T12:49:53.180Z,45.60
2022-09-23T12:52:19.819Z,45.80
2022-09-23T12:54:47.642Z,48.00
2022-09-23T12:57:34.315Z,48.80
2022-09-23T13:00:11.167Z,50.30
2022-09-23T13:02:37.878Z,51.80
2022-09-23T13:05:29.930Z,53.80
2022-09-23T13:08:02.447Z,53.80
2022-09-23T13:10:30.736Z,53.40
2022-09-23T13:12:57.578Z,53.70
2022-09-23T13:15:33.939Z,55.50
2022-09-23T13:18:18.964Z,54.20
2022-09-23T13:20:46.859Z,53.60
2022-09-23T13:23:31.341Z,53.10
2022-09-23T13:26:00.042Z,52.30
2022-09-23T13:28:30.801Z,53.30
2022-09-23T13:30:58.474Z,53.70
2022-09-23T13:33:46.031Z,53.10
2022-09-23T13:36:14.475Z,53.40
2022-09-23T13:38:41.595Z,55.40
2022-09-23T13:41:16.368Z,53.80
2022-09-23T13:43:54.031Z,53.00
2022-09-23T13:46:26.410Z,53.50
2022-09-23T13:48:56.656Z,53.30
2022-09-23T13:51:36.493Z,54.50
2022-09-23T13:54:04.439Z,53.90
2022-09-23T13:56:32.423Z,53.80
2022-09-23T13:59:18.022Z,55.40
2022-09-23T14:01:45.594Z,53.50
2022-09-23T14:04:25.474Z,53.10
2022-09-23T14:06:53.207Z,53.60
2022-09-23T14:09:23.640Z,53.40
2022-09-23T14:11:51.340Z,52.80
2022-09-23T14:14:18.289Z,52.20
2022-09-23T14:16:45.144Z,52.10
2022-09-23T14:19:17.707Z,52.20
2022-09-23T14:21:49.579Z,51.40
2022-09-23T14:24:20.639Z,51.10
2022-09-23T14:26:49.009Z,51.70
2022-09-23T14:29:17.907Z,51.90
2022-09-23T14:31:58.426Z,52.50
2022-09-23T14:34:44.049Z,52.90
2022-09-23T14:37:40.139Z,53.10
2022-09-23T14:40:12.146Z,53.10
2022-09-23T14:42:41.165Z,53.90
2022-09-23T14:45:12.679Z,54.60
2022-09-23T14:47:42.638Z,55.50
2022-09-23T14:50:33.606Z,56.20
2022-09-23T14:53:00.711Z,56.30
2022-09-23T14:55:28.904Z,55.80
2022-09-23T14:58:03.360Z,58.80
2022-09-23T15:00:31.267Z,58.30
2022-09-23T15:03:02.670Z,57.10
2022-09-23T15:05:40.729Z,58.00
2022-09-23T15:08:07.573Z,58.40
2022-09-23T15:10:37.530Z,58.80
2022-09-23T15:13:09.039Z,61.50
2022-09-23T15:15:35.995Z,61.60
2022-09-23T15:18:23.147Z,61.30
2022-09-23T15:20:52.181Z,62.70
2022-09-23T15:23:52.624Z,63.60
2022-09-23T15:26:26.669Z,64.70
2022-09-23T15:28:56.149Z,63.70
2022-09-23T15:31:26.448Z,65.40
2022-09-23T15:33:53.335Z,66.30
2022-09-23T15:36:21.309Z,65.60
2022-09-23T15:38:48.383Z,65.50
2022-09-23T15:41:15.710Z,66.40
2022-09-23T15:43:42.597Z,67.10
2022-09-23T15:46:14.183Z,67.30
2022-09-23T15:48:42.865Z,68.70
2022-09-23T15:51:13.115Z,68.50
2022-09-23T15:53:39.787Z,68.30
2022-09-23T15:56:06.583Z,68.30
2022-09-23T15:58:36.198Z,68.60
2022-09-23T16:01:03.616Z,68.90
2022-09-23T16:03:30.255Z,67.70
2022-09-23T16:06:00.191Z,66.40
2022-09-23T16:08:27.413Z,64.60
2022-09-23T16:10:54.963Z,68.10
2022-09-23T16:13:21.851Z,68.60
2022-09-23T16:15:48.480Z,70.10
2022-09-23T16:18:15.142Z,71.10
2022-09-23T16:20:42.793Z,73.00
2022-09-23T16:23:18.064Z,73.80
2022-09-23T16:25:44.979Z,73.00
2022-09-23T16:28:11.630Z,72.10
2022-09-23T16:30:38.449Z,74.50
2022-09-23T16:33:05.084Z,77.40
2022-09-23T16:35:33.498Z,76.70
2022-09-23T16:38:00.235Z,77.20
2022-09-23T16:40:27.017Z,76.40
2022-09-23T16:42:55.932Z,76.00
2022-09-23T16:45:23.394Z,77.50
2022-09-23T16:47:51.174Z,78.10
2022-09-23T16:50:19.133Z,78.10
2022-09-23T16:52:46.960Z,79.40
2022-09-23T16:55:13.838Z,80.50
2022-09-23T16:57:41.065Z,80.10
2022-09-23T17:00:28.898Z,82.10
2022-09-23T17:03:14.124Z,83.60
2022-09-23T17:05:40.707Z,85.40
2022-09-23T17:08:07.702Z,83.20
2022-09-23T17:10:34.666Z,82.90
2022-09-23T17:13:01.734Z,82.80
2022-09-23T17:15:28.406Z,86.50
2022-09-23T17:17:55.037Z,87.30
2022-09-23T17:20:21.682Z,88.70
2022-09-23T17:22:50.379Z,85.50
2022-09-23T17:25:17.006Z,89.00
2022-09-23T17:27:43.724Z,88.60
2022-09-23T17:30:10.555Z,89.50
2022-09-23T17:32:38.188Z,89.40
2022-09-23T17:35:05.115Z,90.40
2022-09-23T17:37:32.770Z,90.00
2022-09-23T17:40:00.011Z,90.30
2022-09-23T17:42:29.872Z,90.10
2022-09-23T17:44:56.480Z,90.20
2022-09-23T17:47:26.772Z,91.10
2022-09-23T17:49:58.048Z,91.00
2022-09-23T17:52:24.849Z,91.60
2022-09-23T17:54:53.760Z,91.00
2022-09-23T17:57:20.752Z,91.50
2022-09-23T17:59:50.670Z,91.10
2022-09-23T18:02:19.828Z,91.70
2022-09-23T18:04:46.944Z,91.90
2022-09-23T18:07:14.272Z,91.40
2022-09-23T18:09:40.976Z,91.40
2022-09-23T18:12:12.028Z,91.40
2022-09-23T18:14:51.252Z,91.60
2022-09-23T18:17:20.442Z,91.40
2022-09-23T18:19:50.731Z,91.20
2022-09-23T18:22:17.665Z,91.50
2022-09-23T18:24:44.961Z,91.00
2022-09-23T18:27:15.083Z,90.60
2022-09-23T18:29:41.901Z,91.10
2022-09-23T18:32:27.002Z,90.20
2022-09-23T18:34:53.753Z,88.20
2022-09-23T18:37:20.422Z,89.90
2022-09-23T18:39:48.647Z,90.40
2022-09-23T18:42:15.418Z,90.90
2022-09-23T18:44:42.049Z,91.50
2022-09-23T18:47:29.725Z,87.50
2022-09-23T18:53:07.306Z,89.00
2022-09-23T18:55:35.177Z,89.80
2022-09-23T18:58:02.014Z,91.00
2022-09-23T19:00:28.826Z,91.00
2022-09-23T19:02:55.859Z,90.90
2022-09-23T19:05:23.638Z,91.20
2022-09-23T19:07:50.943Z,90.70
2022-09-23T19:10:19.343Z,89.80
2022-09-23T19:12:49.314Z,90.50
2022-09-23T19:15:16.599Z,90.40
2022-09-23T19:17:43.298Z,91.00
2022-09-23T19:20:10.336Z,90.60
2022-09-23T19:22:39.809Z,91.60
2022-09-23T19:25:06.823Z,91.70
2022-09-23T19:27:42.887Z,91.90
2022-09-23T19:30:11.717Z,92.00
2022-09-23T19:32:44.950Z,92.40
2022-09-23T19:35:15.670Z,91.50
2022-09-23T19:37:47.106Z,91.00
2022-09-23T19:40:13.806Z,91.20
2022-09-23T19:42:43.646Z,92.00
2022-09-23T19:45:10.282Z,92.40
2022-09-23T19:47:38.152Z,91.90
2022-09-23T19:50:07.326Z,91.20
2022-09-23T19:52:33.958Z,92.10
2022-09-23T19:55:00.644Z,92.70
2022-09-23T19:57:31.070Z,92.40
2022-09-23T19:59:57.710Z,91.70
2022-09-23T20:02:24.357Z,92.80
2022-09-23T20:04:54.017Z,93.60
2022-09-23T20:07:20.647Z,93.70
2022-09-23T20:09:48.444Z,93.40
2022-09-23T20:12:15.538Z,94.10
2022-09-23T20:14:45.166Z,94.50
2022-09-23T20:17:14.020Z,94.70
2022-09-23T20:19:40.720Z,95.10
2022-09-23T20:22:28.501Z,94.90
2022-09-23T20:24:59.277Z,95.50
2022-09-23T20:27:31.604Z,95.20
2022-09-23T20:29:58.797Z,96.20
2022-09-23T20:32:25.558Z,96.30
2022-09-23T20:34:53.325Z,96.50
2022-09-23T20:37:21.020Z,96.20
2022-09-23T20:39:48.086Z,97.20
2022-09-23T20:42:15.924Z,97.40
2022-09-23T20:44:43.358Z,97.50
2022-09-23T20:47:13.021Z,97.50
2022-09-23T20:49:43.908Z,97.40
2022-09-23T20:52:14.718Z,97.20
2022-09-23T20:54:42.127Z,97.60
2022-09-23T20:57:09.875Z,97.60
2022-09-23T20:59:36.485Z,97.90
2022-09-23T21:02:03.638Z,97.90
2022-09-23T21:04:30.447Z,97.70
2022-09-23T21:06:58.138Z,97.80
2022-09-23T21:09:28.774Z,97.90
2022-09-23T21:11:55.517Z,97.70
2022-09-23T21:14:22.514Z,97.90
2022-09-23T21:16:50.453Z,98.10
2022-09-23T21:19:19.661Z,98.00
2022-09-23T21:21:46.431Z,97.10
2022-09-23T21:24:40.050Z,97.30
2022-09-23T21:26:59.970Z,97.50
2022-09-23T21:29:27.721Z,98.00
2022-09-23T21:31:54.428Z,97.80
2022-09-23T21:34:21.214Z,98.20
2022-09-23T21:36:48.290Z,98.20
2022-09-23T21:39:15.062Z,97.80
2022-09-23T21:41:42.227Z,98.00
2022-09-23T21:44:08.970Z,98.00
2022-09-23T21:46:38.696Z,98.10
2022-09-23T21:49:05.422Z,98.10
2022-09-23T21:51:40.838Z,98.00
2022-09-23T21:54:11.185Z,98.10
2022-09-23T21:56:37.903Z,97.90
2022-09-23T21:59:05.379Z,98.20
2022-09-23T22:01:36.396Z,97.40
2022-09-23T22:04:10.859Z,97.50
2022-09-23T22:06:38.439Z,97.70
2022-09-23T22:09:08.798Z,97.70
2022-09-23T22:11:56.648Z,97.70
2022-09-23T22:14:25.420Z,97.30
2022-09-23T22:16:58.930Z,97.80
2022-09-23T22:19:26.970Z,97.60
2022-09-23T22:21:53.992Z,97.60
2022-09-23T22:24:20.690Z,97.50
2022-09-23T22:26:47.571Z,97.80
2022-09-23T22:29:33.985Z,97.60
2022-09-23T22:32:21.154Z,97.30
2022-09-23T22:34:51.640Z,97.20
2022-09-23T22:37:20.509Z,97.10
2022-09-23T22:39:47.347Z,97.30
2022-09-23T22:42:14.475Z,96.80
2022-09-23T22:44:41.321Z,96.80
2022-09-23T22:47:09.222Z,96.60
2022-09-23T22:49:36.985Z,96.70
2022-09-23T22:52:07.759Z,97.00
2022-09-23T22:54:35.033Z,96.80
2022-09-23T22:57:03.820Z,96.60
2022-09-23T22:59:32.742Z,97.10
2022-09-23T23:02:00.051Z,96.90
2022-09-23T23:04:27.575Z,97.10
2022-09-23T23:06:54.193Z,97.00
2022-09-23T23:09:22.047Z,96.70
2022-09-23T23:11:48.643Z,97.40
2022-09-23T23:14:17.254Z,97.30
2022-09-23T23:16:45.146Z,97.50
2022-09-23T23:19:13.566Z,97.30
2022-09-23T23:21:43.399Z,97.40
2022-09-23T23:24:13.966Z,97.60
2022-09-23T23:26:40.692Z,97.30
2022-09-23T23:29:07.319Z,97.20
2022-09-23T23:31:34.092Z,97.70
2022-09-23T23:34:00.851Z,97.80
2022-09-23T23:36:31.052Z,97.80
2022-09-23T23:38:57.692Z,97.70
2022-09-23T23:41:24.310Z,97.80
2022-09-23T23:43:58.782Z,97.90
2022-09-23T23:46:26.515Z,97.90
2022-09-23T23:48:53.996Z,97.50
2022-09-23T23:51:22.605Z,97.60
2022-09-23T23:53:49.251Z,98.30
2022-09-23T23:56:18.350Z,98.10
2022-09-23T23:58:45.074Z,98.50
